Time;durP1;ratioP1;P1;durP2;ratioP2;P2;SDS_P1;SDS_P2;PMS_P1;PMS_P2;Temp;Humidity;BMP_temperature;BMP_pressure;BME280_temperature;BME280_humidity;BME280_pressure;Samples;Min_cycle;Max_cycle;Signal;HPM_P1;HPM_P2
2023/06/13 07:13:39;;;;;;;7.10;3.00;;;;;;;18.74;63.02;99055.84;80755;1301;3012023;-65
2023/06/13 07:16:06;;;;;;;8.60;3.40;;;;;;;18.87;62.67;99056.70;79367;1314;3012829;-66
2023/06/13 07:18:33;;;;;;;7.70;3.60;;;;;;;19.00;61.76;99061.04;78967;1301;3011953;-70
2023/06/13 07:21:01;;;;;;;9.80;3.30;;;;;;;19.06;61.43;99060.42;78184;1303;3028143;-69
2023/06/13 07:23:28;;;;;;;8.50;3.30;;;;;;;19.12;61.02;99059.99;79358;1300;3013176;-68
2023/06/13 07:25:55;;;;;;;5.90;2.80;;;;;;;19.19;61.01;99058.57;77516;1300;3012101;-66
2023/06/13 07:28:24;;;;;;;9.10;2.80;;;;;;;19.26;60.60;99058.59;78194;1303;3047947;-68
2023/06/13 07:30:50;;;;;;;6.20;2.30;;;;;;;19.27;61.12;99057.96;79252;1302;3012592;-63
2023/06/13 07:33:17;;;;;;;7.10;2.40;;;;;;;19.32;61.48;99056.14;79139;1297;3011593;-66
2023/06/13 07:35:45;;;;;;;5.00;2.90;;;;;;;19.45;59.70;99058.91;78199;1298;3050711;-71
2023/06/13 07:38:11;;;;;;;4.00;2.10;;;;;;;19.51;59.23;99060.60;79614;1297;3012829;-67
2023/06/13 07:40:38;;;;;;;8.30;2.20;;;;;;;19.57;59.37;99062.42;79428;1298;3011861;-71
2023/06/13 07:43:06;;;;;;;5.90;2.30;;;;;;;19.63;58.96;99065.74;78168;1301;3024988;-70
2023/06/13 07:45:32;;;;;;;7.00;1.90;;;;;;;19.70;58.83;99068.77;79447;1300;3018576;-67
2023/06/13 07:47:59;;;;;;;3.20;2.00;;;;;;;19.81;59.41;99068.86;79515;1298;3012865;-67
2023/06/13 07:50:28;;;;;;;4.10;1.90;;;;;;;19.93;59.21;99073.09;78377;1300;3026653;-69
2023/06/13 07:52:54;;;;;;;4.40;2.10;;;;;;;19.92;59.17;99066.16;79356;1300;3013822;-70
2023/06/13 07:55:21;;;;;;;6.50;2.20;;;;;;;19.99;58.93;99060.11;79379;1300;3011624;-70
2023/06/13 07:57:50;;;;;;;3.30;2.00;;;;;;;20.06;58.87;99066.95;78228;1301;3050485;-70
2023/06/13 08:00:17;;;;;;;3.60;1.80;;;;;;;20.02;59.38;99063.48;79373;1304;3013259;-69
2023/06/13 08:02:44;;;;;;;6.10;2.40;;;;;;;20.07;59.02;99067.55;79340;1303;3011244;-69
2023/06/13 08:05:13;;;;;;;5.70;2.30;;;;;;;20.13;58.53;99069.73;78241;1302;3053148;-69
2023/06/13 08:07:41;;;;;;;3.80;1.80;;;;;;;20.16;58.41;99068.90;79402;1298;3011635;-72
2023/06/13 08:10:08;;;;;;;2.90;2.10;;;;;;;20.22;58.83;99073.41;79410;1297;3012765;-72
2023/06/13 08:12:36;;;;;;;5.90;2.20;;;;;;;20.34;58.61;99075.31;78215;1296;3050202;-70
2023/06/13 08:15:04;;;;;;;3.60;1.90;;;;;;;20.39;58.36;99076.92;79412;1303;3013423;-68
2023/06/13 08:17:31;;;;;;;7.10;2.00;;;;;;;20.43;58.70;99083.83;79405;1298;3011582;-66
2023/06/13 08:19:59;;;;;;;10.50;2.20;;;;;;;20.50;58.27;99085.40;78300;1303;3052297;-69
2023/06/13 08:22:27;;;;;;;5.10;2.20;;;;;;;20.56;58.16;99085.02;79401;1301;3013610;-69
2023/06/13 08:24:53;;;;;;;3.00;2.00;;;;;;;20.75;57.97;99082.84;79504;1300;3011352;-67
2023/06/13 08:27:21;;;;;;;5.30;2.00;;;;;;;20.78;57.51;99075.19;78205;1297;3050471;-70
2023/06/13 08:29:48;;;;;;;3.60;1.50;;;;;;;20.86;57.60;99071.73;79452;1300;3012833;-69
2023/06/13 08:32:15;;;;;;;3.60;1.50;;;;;;;20.99;57.09;99071.31;79359;1303;3011890;-66
2023/06/13 08:34:45;;;;;;;7.60;2.10;;;;;;;21.09;56.97;99070.58;78282;1304;3051347;-66
2023/06/13 08:37:12;;;;;;;4.90;2.00;;;;;;;21.12;56.36;99068.34;79458;1297;3013112;-68
2023/06/13 08:39:39;;;;;;;3.60;1.80;;;;;;;21.12;56.22;99069.31;79418;1299;3011344;-67
2023/06/13 08:42:07;;;;;;;6.00;1.70;;;;;;;21.19;56.83;99068.83;78180;1303;3049853;-71
2023/06/13 08:44:33;;;;;;;2.50;1.60;;;;;;;21.27;56.54;99073.96;79437;1302;3012944;-69
2023/06/13 08:47:01;;;;;;;3.90;2.00;;;;;;;21.35;55.94;99070.70;79472;1299;3011651;-66
2023/06/13 08:49:28;;;;;;;5.40;1.60;;;;;;;21.50;55.71;99072.10;78184;1300;3029107;-68
2023/06/13 08:51:55;;;;;;;7.30;2.30;;;;;;;21.57;55.20;99066.30;79241;1304;3018668;-69
2023/06/13 08:54:22;;;;;;;2.80;1.50;;;;;;;21.60;54.87;99068.13;79685;1300;3011676;-68
2023/06/13 08:56:50;;;;;;;5.10;1.80;;;;;;;21.63;55.28;99067.85;78039;1304;3025631;-68
2023/06/13 08:59:19;;;;;;;3.90;1.90;;;;;;;21.77;55.17;99069.83;79478;1297;3013532;-69
2023/06/13 09:01:48;;;;;;;3.30;2.10;;;;;;;21.85;54.67;99064.96;79017;1301;3013059;-66
2023/06/13 09:04:16;;;;;;;4.70;2.10;;;;;;;21.90;54.30;99059.27;81852;1298;3018091;-64
2023/06/13 09:06:43;;;;;;;4.30;1.80;;;;;;;21.99;54.55;99058.77;81883;1300;3011108;-66
2023/06/13 09:09:12;;;;;;;3.10;1.90;;;;;;;22.10;54.64;99050.85;80593;1298;3050940;-68
2023/06/13 09:11:39;;;;;;;2.30;1.50;;;;;;;22.20;53.86;99052.20;81856;1298;3011365;-70
2023/06/13 09:14:06;;;;;;;5.90;1.90;;;;;;;22.31;54.12;99052.19;81927;1297;3011373;-69
2023/06/13 09:16:34;;;;;;;9.40;1.90;;;;;;;22.31;53.46;99045.66;80639;1296;3036334;-69
2023/06/13 09:19:02;;;;;;;3.80;2.20;;;;;;;22.36;53.84;99050.35;81900;1301;3018252;-65
2023/06/13 09:21:28;;;;;;;6.80;1.80;;;;;;;22.43;53.40;99049.98;81924;1298;3011256;-71
2023/06/13 09:23:56;;;;;;;5.40;1.70;;;;;;;22.54;53.40;99048.31;80638;1297;3026218;-68
2023/06/13 09:26:23;;;;;;;8.90;2.10;;;;;;;22.66;53.16;99048.50;81893;1299;3018130;-67
2023/06/13 09:28:51;;;;;;;5.40;1.70;;;;;;;22.81;51.99;99048.73;81905;1296;3011362;-65
2023/06/13 09:31:19;;;;;;;5.00;2.10;;;;;;;22.92;51.68;99047.34;80690;1297;3048708;-70
2023/06/13 09:33:45;;;;;;;2.70;1.70;;;;;;;23.05;51.38;99050.33;81958;1297;3013160;-69
2023/06/13 09:36:12;;;;;;;4.00;1.70;;;;;;;23.00;51.47;99052.52;81901;1300;3011374;-66
2023/06/13 09:38:41;;;;;;;2.90;1.70;;;;;;;23.01;51.96;99047.03;80679;1296;3027019;-69
2023/06/13 09:41:11;;;;;;;6.20;2.30;;;;;;;23.13;51.76;99045.60;81984;1297;3013259;-69
2023/06/13 09:43:40;;;;;;;5.20;2.00;;;;;;;23.25;51.56;99048.11;80658;1300;3053996;-70
2023/06/13 09:46:13;;;;;;;3.50;1.60;;;;;;;23.44;51.02;99046.04;81908;1297;3012941;-66
2023/06/13 09:48:45;;;;;;;4.40;2.00;;;;;;;23.57;50.59;99045.15;80660;1297;3052272;-70
2023/06/13 09:51:11;;;;;;;6.50;1.60;;;;;;;23.52;50.49;99047.73;81928;1297;3011285;-66
2023/06/13 09:53:39;;;;;;;4.80;1.90;;;;;;;23.57;50.40;99047.86;80624;1297;3026838;-65
2023/06/13 09:56:10;;;;;;;5.60;1.60;;;;;;;23.73;50.06;99047.67;81900;1297;3018553;-68
2023/06/13 09:58:40;;;;;;;8.00;1.70;;;;;;;23.86;49.82;99057.51;81384;1296;3011390;-72
2023/06/13 10:01:17;;;;;;;6.90;2.10;;;;;;;24.02;49.06;99054.17;81954;1297;3011595;-70
2023/06/13 10:03:46;;;;;;;5.30;1.50;;;;;;;23.91;49.41;99054.13;80671;1297;3049417;-67
2023/06/13 10:06:13;;;;;;;2.40;1.60;;;;;;;24.00;49.62;99055.35;81921;1297;3018120;-68
2023/06/13 10:08:40;;;;;;;3.50;1.60;;;;;;;24.15;49.44;99057.11;81936;1297;3011397;-70
2023/06/13 10:11:20;;;;;;;9.10;2.00;;;;;;;24.24;49.30;99054.15;80672;1296;3025732;-69
2023/06/13 10:14:08;;;;;;;3.90;1.80;;;;;;;24.18;49.47;99058.54;80596;1296;3056340;-69
2023/06/13 10:16:53;;;;;;;8.10;1.70;;;;;;;24.15;49.75;99057.27;80690;1297;3048665;-73
2023/06/13 10:19:21;;;;;;;6.70;1.80;;;;;;;24.29;49.56;99059.95;80645;1302;3053104;-68
2023/06/13 10:21:48;;;;;;;5.40;1.90;;;;;;;24.51;48.64;99053.08;81884;1297;3012688;-71
2023/06/13 10:24:15;;;;;;;6.40;2.40;;;;;;;24.50;48.34;99051.13;81917;1297;3011403;-71
2023/06/13 10:26:44;;;;;;;2.40;1.60;;;;;;;24.57;47.92;99053.04;80687;1296;3027065;-69
2023/06/13 10:29:19;;;;;;;4.20;1.90;;;;;;;24.61;47.71;99044.73;81949;1297;3012705;-69
2023/06/13 10:32:02;;;;;;;4.00;1.70;;;;;;;24.61;47.86;99041.64;80688;1296;3048570;-70
2023/06/13 10:34:37;;;;;;;6.40;1.70;;;;;;;24.58;48.15;99033.45;80655;1300;3053271;-68
2023/06/13 10:37:15;;;;;;;5.40;2.00;;;;;;;24.68;47.98;99031.50;81395;1296;3011244;-70
2023/06/13 10:40:04;;;;;;;10.90;1.80;;;;;;;24.58;47.61;99028.06;80687;1297;3049966;-71
2023/06/13 10:42:52;;;;;;;5.60;1.80;;;;;;;24.77;48.08;99026.19;80691;1297;3052094;-70
2023/06/13 10:45:23;;;;;;;4.20;1.70;;;;;;;25.07;47.09;99026.17;80629;1297;3052570;-69
2023/06/13 10:47:50;;;;;;;5.30;1.70;;;;;;;25.07;46.90;99021.91;81969;1297;3012509;-71
2023/06/13 10:50:20;;;;;;;5.70;1.80;;;;;;;25.02;47.39;99024.70;80686;1296;3026609;-72
2023/06/13 10:52:48;;;;;;;5.00;1.70;;;;;;;24.96;47.77;99020.95;81817;1299;3010990;-70
2023/06/13 10:55:24;;;;;;;7.90;2.30;;;;;;;24.97;47.58;99025.45;81398;1297;3011248;-70
2023/06/13 10:57:56;;;;;;;9.90;2.50;;;;;;;24.74;47.14;99015.67;80654;1296;3052712;-72
2023/06/13 11:00:31;;;;;;;7.40;2.10;;;;;;;24.71;47.65;99012.27;81842;1301;3011168;-69
2023/06/13 11:03:00;;;;;;;7.60;2.40;;;;;;;24.81;47.48;99015.72;80686;1297;3053535;-71
2023/06/13 11:05:27;;;;;;;9.70;2.90;;;;;;;24.86;47.42;99011.67;81973;1296;3011329;-69
2023/06/13 11:07:57;;;;;;;7.40;1.90;;;;;;;24.78;47.72;99011.66;81968;1296;3011391;-68
2023/06/13 11:10:25;;;;;;;9.40;2.50;;;;;;;24.77;47.55;99010.64;80694;1297;3057623;-71
2023/06/13 11:12:56;;;;;;;6.70;2.70;;;;;;;25.02;47.24;99010.55;81950;1296;3012952;-69
2023/06/13 11:15:25;;;;;;;5.60;1.80;;;;;;;25.10;46.62;99012.91;80646;1298;3051147;-71
2023/06/13 11:18:01;;;;;;;8.90;2.30;;;;;;;25.26;46.52;99005.92;81905;1301;3011193;-69
2023/06/13 11:20:30;;;;;;;5.10;1.90;;;;;;;25.51;45.99;99002.94;80723;1296;3052527;-70
2023/06/13 11:22:57;;;;;;;4.80;2.00;;;;;;;25.73;45.43;98998.83;81941;1297;3013063;-71
2023/06/13 11:25:24;;;;;;;8.80;2.40;;;;;;;25.99;44.99;98991.79;81923;1296;3011304;-71
2023/06/13 11:27:52;;;;;;;6.30;1.60;;;;;;;26.18;44.67;98984.52;80715;1297;3048551;-71
2023/06/13 11:30:18;;;;;;;4.10;1.40;;;;;;;26.35;43.99;98985.58;81953;1296;3012435;-70
2023/06/13 11:32:45;;;;;;;5.70;1.90;;;;;;;26.45;43.68;98985.90;81899;1297;3011187;-70
2023/06/13 11:35:16;;;;;;;3.20;1.60;;;;;;;26.58;43.01;98982.52;80710;1297;3054776;-69
2023/06/13 11:37:46;;;;;;;9.10;1.90;;;;;;;26.62;42.96;98985.33;81885;1297;3013203;-71
2023/06/13 11:40:21;;;;;;;3.10;1.90;;;;;;;26.68;42.63;98989.31;80648;1297;3055181;-71
2023/06/13 11:42:50;;;;;;;6.50;1.60;;;;;;;26.74;42.60;98986.50;81348;1296;3011239;-74
2023/06/13 11:45:16;;;;;;;5.20;1.80;;;;;;;26.82;42.38;98988.73;81982;1296;3018517;-71
2023/06/13 11:47:44;;;;;;;9.70;2.00;;;;;;;26.93;42.25;98987.18;81838;1298;3011414;-71
2023/06/13 11:50:12;;;;;;;8.40;1.90;;;;;;;26.90;42.60;98984.86;80704;1296;3025389;-69
2023/06/13 11:52:38;;;;;;;2.80;1.30;;;;;;;26.90;42.26;98983.98;81974;1296;3018134;-70
2023/06/13 11:55:17;;;;;;;7.30;2.00;;;;;;;26.78;42.45;98974.23;81922;1297;3011305;-68
2023/06/13 11:57:46;;;;;;;2.60;1.80;;;;;;;26.74;42.80;98974.61;80713;1296;3056390;-70
2023/06/13 12:00:14;;;;;;;3.10;1.60;;;;;;;26.81;42.98;98972.07;81959;1297;3011304;-70
2023/06/13 12:02:41;;;;;;;10.60;2.10;;;;;;;26.94;42.36;98973.87;81920;1298;3011276;-66
2023/06/13 12:05:10;;;;;;;9.30;2.10;;;;;;;26.84;42.52;98976.11;80680;1297;3052008;-68
2023/06/13 12:07:36;;;;;;;3.10;1.60;;;;;;;26.92;42.64;98971.92;81938;1297;3012619;-71
2023/06/13 12:10:03;;;;;;;3.80;1.50;;;;;;;27.24;41.95;98966.98;81925;1296;3011268;-68
2023/06/13 12:12:31;;;;;;;7.20;1.70;;;;;;;27.41;41.84;98966.20;80682;1297;3057169;-67
2023/06/13 12:14:58;;;;;;;4.40;2.00;;;;;;;27.56;41.15;98962.76;81961;1296;3013102;-66
2023/06/13 12:17:26;;;;;;;7.50;1.90;;;;;;;27.73;40.88;98962.83;81964;1297;3011155;-68
2023/06/13 12:20:10;;;;;;;9.90;2.30;;;;;;;27.87;40.82;98957.88;80733;1297;3051312;-69
2023/06/13 12:22:38;;;;;;;10.80;3.10;;;;;;;28.09;40.21;98967.27;80693;1296;3053797;-66
2023/06/13 12:25:05;;;;;;;8.50;3.50;;;;;;;28.03;40.28;98966.25;81980;1297;3012522;-68
2023/06/13 12:27:32;;;;;;;10.50;3.00;;;;;;;28.15;40.45;98966.75;81952;1296;3011319;-70
2023/06/13 12:30:11;;;;;;;8.00;2.80;;;;;;;28.25;40.24;98957.37;80607;1295;3048816;-73
2023/06/13 12:32:43;;;;;;;10.50;3.40;;;;;;;28.37;40.09;98953.89;80681;1297;3053992;-71
2023/06/13 12:35:11;;;;;;;6.40;3.30;;;;;;;28.44;39.55;98952.95;81978;1296;3011297;-69
2023/06/13 12:37:39;;;;;;;5.60;2.90;;;;;;;28.62;39.26;98952.41;80674;1296;3025217;-69
2023/06/13 12:40:12;;;;;;;11.10;3.40;;;;;;;28.79;38.71;98948.06;81943;1297;3018627;-66
2023/06/13 12:42:42;;;;;;;6.80;3.10;;;;;;;28.98;38.74;98944.67;80665;1296;3051569;-70
2023/06/13 12:45:10;;;;;;;6.40;2.90;;;;;;;29.19;38.25;98946.55;81904;1296;3011285;-68
2023/06/13 12:47:38;;;;;;;7.00;3.00;;;;;;;29.12;38.38;98941.36;80679;1296;3026132;-69
2023/06/13 12:50:09;;;;;;;10.80;3.10;;;;;;;28.90;39.17;98940.16;81896;1300;3011490;-66
2023/06/13 12:52:38;;;;;;;6.80;3.90;;;;;;;28.86;38.77;98940.20;80702;1296;3052549;-66
2023/06/13 12:55:06;;;;;;;7.90;3.70;;;;;;;28.47;39.58;98941.03;81916;1297;3011296;-70
2023/06/13 12:57:36;;;;;;;7.20;3.10;;;;;;;28.17;40.49;98931.13;81411;1296;3011459;-67
2023/06/13 13:00:06;;;;;;;6.40;3.00;;;;;;;28.03;41.18;98934.33;81933;1297;3012790;-72
2023/06/13 13:02:35;;;;;;;10.20;2.50;;;;;;;28.18;40.62;98934.08;80691;1296;3048975;-68
2023/06/13 13:05:03;;;;;;;11.30;2.90;;;;;;;28.46;39.15;98935.44;81969;1296;3012666;-67
2023/06/13 13:07:37;;;;;;;6.40;2.70;;;;;;;28.72;38.88;98931.22;82001;1295;3011418;-67
2023/06/13 13:10:06;;;;;;;;;;;;;;;28.79;39.11;98932.23;80730;1297;3051776;-71
2023/06/13 13:12:33;;;;;;;8.20;2.90;;;;;;;28.90;39.25;98931.66;81985;1296;3013169;-66
2023/06/13 13:15:00;;;;;;;4.30;2.50;;;;;;;29.26;38.62;98929.38;81971;1296;3011131;-71
2023/06/13 13:17:28;;;;;;;5.30;2.60;;;;;;;29.52;38.15;98927.83;80682;1297;3048253;-71
2023/06/13 13:19:56;;;;;;;7.10;2.30;;;;;;;29.49;37.64;98922.20;81958;1297;3012674;-69
2023/06/13 13:22:23;;;;;;;8.10;2.70;;;;;;;29.71;37.36;98920.60;81928;1295;3011781;-71
2023/06/13 13:24:51;;;;;;;4.00;2.20;;;;;;;29.71;37.39;98918.05;80735;1295;3052263;-71
2023/06/13 13:27:18;;;;;;;8.30;2.20;;;;;;;29.81;37.19;98921.61;82002;1296;3017958;-68
2023/06/13 13:29:45;;;;;;;4.30;2.00;;;;;;;30.02;36.65;98919.23;81950;1296;3011435;-71
2023/06/13 13:32:13;;;;;;;5.60;2.50;;;;;;;30.21;35.96;98917.36;80732;1295;3026540;-71
2023/06/13 13:34:40;;;;;;;8.00;3.00;;;;;;;30.18;36.14;98914.55;81984;1296;3011184;-70
2023/06/13 13:37:06;;;;;;;5.50;2.80;;;;;;;30.02;36.31;98913.22;81977;1295;3011398;-73
2023/06/13 13:39:36;;;;;;;4.40;2.30;;;;;;;29.80;37.06;98911.43;80735;1297;3051459;-69
2023/06/13 13:42:03;;;;;;;12.60;2.60;;;;;;;29.61;37.57;98911.20;82010;1294;3019016;-72
2023/06/13 13:44:29;;;;;;;3.30;2.00;;;;;;;29.77;37.67;98908.77;81951;1296;3011304;-72
2023/06/13 13:46:58;;;;;;;5.80;2.60;;;;;;;30.06;37.04;98905.79;80783;1296;3026443;-64
2023/06/13 13:49:27;;;;;;;3.60;1.90;;;;;;;30.21;36.59;98909.16;82173;1294;3012914;-64
2023/06/13 13:51:56;;;;;;;4.50;2.50;;;;;;;30.32;36.57;98907.78;81625;1295;3011116;-66
2023/06/13 13:54:23;;;;;;;6.80;2.40;;;;;;;30.40;36.44;98910.79;82148;1295;3012870;-71
2023/06/13 13:56:50;;;;;;;5.40;2.70;;;;;;;30.12;36.65;98913.23;81962;1296;3011387;-68
2023/06/13 13:59:17;;;;;;;9.40;3.00;;;;;;;30.19;36.36;98913.40;80773;1295;3026243;-68
2023/06/13 14:01:44;;;;;;;5.40;2.70;;;;;;;30.20;36.34;98910.77;81966;1295;3012718;-71
2023/06/13 14:04:13;;;;;;;9.60;4.70;;;;;;;29.94;36.71;98908.98;81956;1296;3011343;-67
2023/06/13 14:06:41;;;;;;;8.50;4.10;;;;;;;30.04;36.84;98909.73;80685;1295;3050443;-72
2023/06/13 14:09:09;;;;;;;9.50;4.80;;;;;;;30.11;37.01;98910.11;82012;1297;3011320;-68
2023/06/13 14:11:39;;;;;;;9.50;2.80;;;;;;;30.39;36.51;98911.46;81457;1295;3011276;-73
2023/06/13 14:14:06;;;;;;;5.60;2.80;;;;;;;30.56;36.23;98911.83;81974;1296;3011372;-72
2023/06/13 14:16:33;;;;;;;9.60;3.00;;;;;;;30.58;36.19;98914.36;81993;1295;3011264;-71
2023/06/13 14:19:01;;;;;;;7.80;2.10;;;;;;;30.40;36.81;98910.03;80733;1295;3048927;-73
2023/06/13 14:21:28;;;;;;;4.60;2.20;;;;;;;30.58;36.53;98912.73;82025;1298;3012731;-68
2023/06/13 14:23:55;;;;;;;5.40;1.90;;;;;;;30.83;35.88;98905.11;81976;1297;3011177;-69
2023/06/13 14:26:23;;;;;;;6.50;2.30;;;;;;;30.89;35.59;98901.60;80753;1296;3052697;-71
2023/06/13 14:28:51;;;;;;;6.40;2.10;;;;;;;30.76;35.51;98901.78;81992;1295;3011371;-69
2023/06/13 14:31:21;;;;;;;6.40;2.30;;;;;;;30.43;36.23;98897.84;81488;1294;3011374;-71
2023/06/13 14:33:48;;;;;;;8.90;2.10;;;;;;;30.43;36.14;98898.52;81967;1296;3013077;-73
2023/06/13 14:36:15;;;;;;;7.30;2.40;;;;;;;30.46;35.86;98890.13;81971;1296;3011304;-74
2023/06/13 14:38:44;;;;;;;11.50;2.10;;;;;;;30.50;35.91;98890.23;80692;1295;3048909;-68
2023/06/13 14:41:11;;;;;;;8.80;2.40;;;;;;;30.51;36.06;98889.27;81966;1297;3012568;-73
2023/06/13 14:43:38;;;;;;;9.60;2.20;;;;;;;30.56;35.99;98894.38;81978;1297;3011201;-71
2023/06/13 14:46:10;;;;;;;5.90;2.00;;;;;;;30.58;35.79;98895.71;80707;1296;3025475;-66
2023/06/13 14:48:37;;;;;;;;;;;;;;;30.89;35.35;98890.84;81971;1296;3011678;-72
2023/06/13 14:51:09;;;;;;;8.90;2.10;;;;;;;31.20;34.96;98892.52;80729;1294;3048510;-70
2023/06/13 14:53:36;;;;;;;6.60;1.70;;;;;;;31.15;34.86;98889.24;81962;1294;3011343;-72
2023/06/13 14:56:06;;;;;;;7.80;1.80;;;;;;;31.33;34.52;98893.91;80711;1295;3026397;-70
2023/06/13 14:58:33;;;;;;;6.20;1.80;;;;;;;31.60;34.19;98896.98;81985;1295;3011110;-71
2023/06/13 15:01:00;;;;;;;6.10;1.90;;;;;;;31.77;33.98;98894.45;82021;1294;3010957;-68
2023/06/13 15:03:29;;;;;;;4.80;2.00;;;;;;;31.88;33.98;98895.64;80719;1296;3051472;-74
2023/06/13 15:05:59;;;;;;;6.00;2.00;;;;;;;31.79;34.19;98891.36;81990;1295;3012664;-67
2023/06/13 15:08:27;;;;;;;7.40;1.90;;;;;;;31.69;34.61;98893.04;80695;1296;3052927;-66
2023/06/13 15:10:57;;;;;;;6.40;1.60;;;;;;;31.89;34.24;98893.38;81971;1295;3011278;-68
2023/06/13 15:13:26;;;;;;;9.70;1.90;;;;;;;31.98;33.80;98896.14;80705;1297;3026507;-71
2023/06/13 15:15:53;;;;;;;8.10;1.70;;;;;;;31.74;34.31;98896.11;81955;1295;3012476;-69
2023/06/13 15:18:24;;;;;;;6.00;1.60;;;;;;;31.65;34.80;98894.71;81967;1296;3011377;-69
2023/06/13 15:20:52;;;;;;;5.00;1.40;;;;;;;31.69;34.60;98899.04;80706;1295;3055819;-66
2023/06/13 15:23:22;;;;;;;6.40;2.30;;;;;;;31.74;34.57;98898.95;81952;1300;3011554;-71
2023/06/13 15:25:51;;;;;;;7.60;2.00;;;;;;;31.95;34.03;98896.58;80729;1296;3050157;-66
2023/06/13 15:28:21;;;;;;;6.80;1.80;;;;;;;31.96;33.72;98900.01;81986;1295;3011411;-72
2023/06/13 15:30:49;;;;;;;7.00;1.70;;;;;;;31.96;33.72;98907.07;80713;1296;3067341;-65
2023/06/13 15:33:18;;;;;;;3.50;1.60;;;;;;;31.61;34.49;98907.52;82019;1295;3012806;-73
2023/06/13 15:35:49;;;;;;;7.80;1.80;;;;;;;31.72;34.35;98905.42;80692;1294;3048439;-70
2023/06/13 15:38:25;;;;;;;3.20;1.60;;;;;;;31.86;34.19;98907.77;81465;1295;3011277;-69
2023/06/13 15:40:52;;;;;;;4.30;1.60;;;;;;;32.04;33.77;98906.61;82006;1294;3012666;-70
2023/06/13 15:43:19;;;;;;;4.70;1.60;;;;;;;32.20;33.13;98906.60;81963;1295;3011515;-68
2023/06/13 15:45:48;;;;;;;4.20;1.80;;;;;;;32.17;33.24;98901.02;80704;1296;3052580;-67
2023/06/13 15:48:15;;;;;;;8.80;2.00;;;;;;;31.96;33.61;98901.31;81996;1295;3013140;-70
2023/06/13 15:50:49;;;;;;;7.70;1.70;;;;;;;32.06;33.42;98902.07;81439;1296;3011139;-71
2023/06/13 15:53:17;;;;;;;;;;;;;;;32.11;33.45;98903.44;81989;1297;3011081;-72
2023/06/13 15:55:45;;;;;;;3.00;1.70;;;;;;;32.11;33.56;98906.66;80727;1296;3026209;-65
2023/06/13 15:58:12;;;;;;;4.60;1.50;;;;;;;32.18;33.36;98908.20;81982;1296;3013178;-70
2023/06/13 16:00:47;;;;;;;5.70;1.60;;;;;;;31.90;33.78;98906.70;80697;1297;3052664;-71
2023/06/13 16:03:14;;;;;;;9.50;2.00;;;;;;;31.91;33.80;98911.66;81958;1297;3010923;-69
2023/06/13 16:05:42;;;;;;;4.60;1.90;;;;;;;31.84;33.88;98910.84;80722;1296;3026684;-69
2023/06/13 16:08:14;;;;;;;6.20;2.00;;;;;;;32.03;33.64;98913.16;81949;1296;3011181;-75
2023/06/13 16:10:49;;;;;;;7.00;1.80;;;;;;;32.12;33.35;98905.96;80679;1294;3057216;-70
2023/06/13 16:13:17;;;;;;;10.30;1.60;;;;;;;31.96;33.50;98910.98;81976;1294;3012575;-72
2023/06/13 16:15:47;;;;;;;4.00;1.70;;;;;;;32.11;33.60;98909.21;81973;1294;3011231;-71
2023/06/13 16:18:17;;;;;;;4.20;1.70;;;;;;;31.75;33.74;98913.56;80723;1296;3052871;-71
2023/06/13 16:20:44;;;;;;;5.80;1.40;;;;;;;31.58;34.04;98917.88;81977;1297;3012710;-71
2023/06/13 16:23:11;;;;;;;4.60;1.90;;;;;;;31.27;34.58;98916.96;81980;1296;3011195;-74
2023/06/13 16:25:40;;;;;;;8.70;1.70;;;;;;;31.16;34.27;98921.33;80733;1296;3056129;-70
2023/06/13 16:28:07;;;;;;;6.70;2.00;;;;;;;30.78;34.95;98927.19;81973;1296;3011595;-71
2023/06/13 16:30:35;;;;;;;8.90;1.90;;;;;;;30.52;35.66;98930.80;81963;1294;3011249;-68
2023/06/13 16:33:03;;;;;;;8.00;1.80;;;;;;;30.31;36.19;98931.48;80720;1297;3053436;-75
2023/06/13 16:35:31;;;;;;;7.20;1.80;;;;;;;30.32;36.12;98930.05;81997;1294;3017979;-69
2023/06/13 16:38:01;;;;;;;4.40;1.80;;;;;;;30.39;35.96;98930.17;81974;1296;3011432;-72
2023/06/13 16:40:28;;;;;;;4.10;2.00;;;;;;;30.20;36.30;98925.13;80701;1294;3056278;-73
2023/06/13 16:42:56;;;;;;;6.00;1.70;;;;;;;29.97;36.71;98925.21;82016;1294;3013103;-68
2023/06/13 16:45:24;;;;;;;4.10;2.00;;;;;;;29.76;37.04;98922.77;81972;1296;3011503;-70
2023/06/13 16:47:52;;;;;;;6.10;1.60;;;;;;;29.45;37.70;98931.56;80740;1297;3053700;-69
2023/06/13 16:50:19;;;;;;;4.00;1.70;;;;;;;29.17;38.33;98934.34;81969;1296;3011265;-68
2023/06/13 16:52:46;;;;;;;5.80;1.80;;;;;;;28.89;38.92;98935.23;81956;1294;3011236;-69
2023/06/13 16:55:14;;;;;;;5.60;1.80;;;;;;;28.64;39.33;98943.83;80713;1295;3057029;-67
2023/06/13 16:57:40;;;;;;;5.10;1.60;;;;;;;28.48;39.78;98937.98;81965;1296;3013472;-66
2023/06/13 17:00:09;;;;;;;9.30;2.00;;;;;;;28.31;39.97;98938.11;81967;1295;3011269;-70
2023/06/13 17:02:37;;;;;;;4.10;1.60;;;;;;;28.08;40.55;98941.79;80745;1297;3051978;-68
2023/06/13 17:05:05;;;;;;;8.40;1.80;;;;;;;27.79;41.48;98938.71;82009;1294;3017999;-72
2023/06/13 17:07:32;;;;;;;4.40;1.60;;;;;;;27.51;42.15;98941.83;81958;1296;3011430;-68
2023/06/13 17:10:00;;;;;;;3.40;1.80;;;;;;;27.35;42.50;98941.77;80730;1296;3057456;-70
2023/06/13 17:12:27;;;;;;;5.50;1.40;;;;;;;27.17;43.11;98939.61;81975;1294;3018085;-69
2023/06/13 17:14:53;;;;;;;4.80;1.50;;;;;;;27.09;43.26;98937.45;81969;1296;3011282;-67
2023/06/13 17:17:21;;;;;;;6.90;1.90;;;;;;;26.97;43.53;98938.94;80726;1296;3026170;-72
2023/06/13 17:19:49;;;;;;;4.70;1.80;;;;;;;26.87;43.82;98945.77;81980;1295;3012667;-69
2023/06/13 17:22:17;;;;;;;6.90;1.90;;;;;;;26.71;44.47;98951.69;82008;1296;3011052;-70
2023/06/13 17:24:45;;;;;;;4.60;1.90;;;;;;;26.55;45.10;98947.48;80705;1294;3055933;-73
2023/06/13 17:27:12;;;;;;;5.60;1.60;;;;;;;26.45;45.61;98949.43;81976;1295;3018079;-71
2023/06/13 17:29:40;;;;;;;4.00;1.80;;;;;;;26.38;45.78;98945.59;82009;1296;3011238;-68
2023/06/13 17:32:08;;;;;;;4.20;1.80;;;;;;;26.20;46.16;98951.16;80755;1296;3051858;-65
2023/06/13 17:34:35;;;;;;;9.30;2.00;;;;;;;26.12;46.26;98950.61;82001;1295;3012510;-70
2023/06/13 17:37:03;;;;;;;8.50;1.90;;;;;;;26.03;46.71;98955.77;81961;1296;3011278;-72
2023/06/13 17:39:31;;;;;;;4.20;1.80;;;;;;;25.92;46.79;98954.45;80772;1295;3055875;-71
2023/06/13 17:42:03;;;;;;;3.60;1.80;;;;;;;25.81;47.19;98954.36;81968;1294;3012520;-70
2023/06/13 17:44:31;;;;;;;6.20;1.70;;;;;;;25.66;47.76;98960.33;80758;1296;3049062;-67
2023/06/13 17:46:58;;;;;;;4.20;1.70;;;;;;;25.53;48.13;98958.77;82002;1296;3018691;-72
2023/06/13 17:49:25;;;;;;;4.90;2.30;;;;;;;25.46;48.40;98964.59;81948;1296;3011189;-70
2023/06/13 17:51:53;;;;;;;6.00;1.50;;;;;;;25.33;48.40;98960.08;80794;1295;3052701;-69
2023/06/13 17:54:20;;;;;;;5.60;1.70;;;;;;;25.22;48.86;98965.88;81987;1294;3012891;-68
2023/06/13 17:56:47;;;;;;;5.80;1.90;;;;;;;25.12;49.09;98974.10;81960;1297;3011246;-70
2023/06/13 17:59:15;;;;;;;7.10;1.90;;;;;;;25.04;49.12;98972.83;80731;1295;3025083;-67
2023/06/13 18:01:41;;;;;;;8.50;2.00;;;;;;;24.93;49.40;98974.35;81990;1296;3013593;-69
2023/06/13 18:04:08;;;;;;;4.40;2.00;;;;;;;24.87;49.60;98975.96;81989;1297;3011396;-66
2023/06/13 18:06:36;;;;;;;6.20;2.10;;;;;;;24.74;50.06;98973.28;80719;1294;3025891;-70
2023/06/13 18:09:04;;;;;;;7.20;1.80;;;;;;;24.66;50.09;98975.30;81997;1295;3012995;-70
2023/06/13 18:11:31;;;;;;;6.40;1.70;;;;;;;24.61;50.18;98975.42;82032;1294;3011055;-70
2023/06/13 18:14:01;;;;;;;7.60;2.10;;;;;;;24.58;49.98;98971.86;80697;1294;3049938;-68
2023/06/13 18:16:27;;;;;;;5.40;2.10;;;;;;;24.47;50.45;98975.92;82022;1297;3011383;-67
2023/06/13 18:18:54;;;;;;;4.40;1.70;;;;;;;24.38;50.66;98971.73;81991;1295;3011181;-66
2023/06/13 18:21:22;;;;;;;5.70;2.10;;;;;;;24.32;50.44;98971.02;80756;1296;3050999;-68
2023/06/13 18:23:49;;;;;;;3.70;1.90;;;;;;;24.29;50.63;98966.77;82066;1294;3012755;-67
2023/06/13 18:26:15;;;;;;;5.60;1.80;;;;;;;24.23;50.59;98962.14;82015;1294;3011204;-67
2023/06/13 18:28:46;;;;;;;7.50;2.30;;;;;;;24.18;50.55;98960.38;80768;1297;3049287;-70
2023/06/13 18:31:12;;;;;;;3.80;1.60;;;;;;;24.14;50.84;98966.08;82007;1297;3018341;-68
2023/06/13 18:33:39;;;;;;;6.50;2.00;;;;;;;24.05;51.24;98970.95;81947;1297;3011072;-71
2023/06/13 18:36:07;;;;;;;7.20;2.00;;;;;;;23.96;51.37;98966.38;80749;1295;3026673;-68